Time;durP1;ratioP1;P1;durP2;ratioP2;P2;SDS_P1;SDS_P2;PMS_P1;PMS_P2;Temp;Humidity;BMP_temperature;BMP_pressure;BME280_temperature;BME280_humidity;BME280_pressure;Samples;Min_cycle;Max_cycle;Signal;HPM_P1;HPM_P2
2023/03/22 00:01:45;;;;;;;3.13;1.27;;;;;;;;;;5042899;28;20510;-83
2023/03/22 00:04:10;;;;;;;0.70;0.70;;;;;;;;;;5041735;28;20393;-83
2023/03/22 00:06:36;;;;;;;0.95;0.93;;;;;;;;;;5044042;28;20032;-84
2023/03/22 00:09:02;;;;;;;2.05;1.73;;;;;;;;;;5041057;28;20417;-85
2023/03/22 00:11:27;;;;;;;2.38;1.85;;;;;;;;;;5044370;28;20025;-84
2023/03/22 00:13:53;;;;;;;2.17;1.33;;;;;;;;;;5043342;28;20032;-84
2023/03/22 00:16:20;;;;;;;7.30;1.85;;;;;;;;;;5040314;28;20399;-83
2023/03/22 00:18:45;;;;;;;4.78;1.83;;;;;;;;;;5048490;28;20108;-82
2023/03/22 00:21:13;;;;;;;3.50;2.05;;;;;;;;;;5041004;28;20061;-85
2023/03/22 00:23:39;;;;;;;2.42;1.80;;;;;;;;;;5042774;28;20059;-84
2023/03/22 00:26:06;;;;;;;2.85;1.90;;;;;;;;;;5041553;28;20444;-85
2023/03/22 00:28:31;;;;;;;4.40;2.40;;;;;;;;;;5039942;28;20546;-85
2023/03/22 00:30:59;;;;;;;6.95;3.85;;;;;;;;;;5045744;28;20028;-85
2023/03/22 00:33:25;;;;;;;5.38;2.22;;;;;;;;;;5039810;28;20056;-84
2023/03/22 00:35:52;;;;;;;5.72;3.60;;;;;;;;;;5044033;28;20465;-85
2023/03/22 00:38:18;;;;;;;4.63;2.40;;;;;;;;;;5039580;28;20029;-84
2023/03/22 00:40:45;;;;;;;2.40;1.58;;;;;;;;;;5045156;28;20138;-84
2023/03/22 00:43:10;;;;;;;1.38;0.80;;;;;;;;;;5055820;28;20434;-84
2023/03/22 00:45:38;;;;;;;2.72;1.10;;;;;;;;;;5041345;28;20040;-85
2023/03/22 00:48:04;;;;;;;3.42;1.27;;;;;;;;;;5041208;28;20060;-85
2023/03/22 00:50:29;;;;;;;1.40;1.15;;;;;;;;;;5037396;28;20049;-85
2023/03/22 00:52:55;;;;;;;1.25;1.15;;;;;;;;;;5045401;28;20428;-85
2023/03/22 00:55:20;;;;;;;3.28;1.85;;;;;;;;;;5039965;28;20021;-83
2023/03/22 00:57:46;;;;;;;3.17;2.33;;;;;;;;;;5038055;28;20034;-84
2023/03/22 01:00:14;;;;;;;2.90;2.35;;;;;;;;;;5048189;28;20385;-83
2023/03/22 01:02:41;;;;;;;1.15;0.80;;;;;;;;;;5040906;28;20404;-84
2023/03/22 01:05:07;;;;;;;2.60;1.33;;;;;;;;;;5042539;28;20025;-83
2023/03/22 01:07:32;;;;;;;2.70;1.48;;;;;;;;;;5041377;28;20798;-83
2023/03/22 01:09:58;;;;;;;1.23;0.82;;;;;;;;;;5041775;28;20029;-83
2023/03/22 01:12:24;;;;;;;2.72;1.55;;;;;;;;;;5041344;28;20037;-86
2023/03/22 01:14:49;;;;;;;1.45;1.05;;;;;;;;;;5042804;28;20036;-85
2023/03/22 01:17:15;;;;;;;0.82;0.73;;;;;;;;;;5047913;28;20029;-86
2023/03/22 01:19:40;;;;;;;0.77;0.77;;;;;;;;;;5038800;28;20714;-85
2023/03/22 01:22:06;;;;;;;0.68;0.68;;;;;;;;;;5045286;28;20099;-86
2023/03/22 01:24:32;;;;;;;1.25;0.90;;;;;;;;;;5040599;28;20481;-84
2023/03/22 01:26:58;;;;;;;1.10;0.60;;;;;;;;;;5041537;28;20032;-84
2023/03/22 01:29:24;;;;;;;0.50;0.50;;;;;;;;;;5043363;28;20465;-86
2023/03/22 01:31:50;;;;;;;1.90;1.52;;;;;;;;;;5043560;28;20025;-84
2023/03/22 01:34:16;;;;;;;0.93;0.70;;;;;;;;;;5039810;28;20077;-86
2023/03/22 01:36:41;;;;;;;1.23;1.05;;;;;;;;;;5043142;28;20021;-84
2023/03/22 01:39:07;;;;;;;1.52;1.00;;;;;;;;;;5040522;28;20025;-87
2023/03/22 01:41:33;;;;;;;1.35;0.63;;;;;;;;;;5037662;28;20030;-86
2023/03/22 01:44:11;;;;;;;0.57;0.57;;;;;;;;;;5044797;28;20060;-86
2023/03/22 01:46:38;;;;;;;1.75;0.88;;;;;;;;;;5039877;28;20029;-86
2023/03/22 01:49:07;;;;;;;0.63;0.63;;;;;;;;;;5047332;28;20027;-86
2023/03/22 01:51:32;;;;;;;0.88;0.57;;;;;;;;;;5042336;28;20045;-86
2023/03/22 01:54:05;;;;;;;0.93;0.73;;;;;;;;;;5043223;28;20040;-83
2023/03/22 01:56:35;;;;;;;1.00;0.65;;;;;;;;;;5046250;28;20025;-87
2023/03/22 01:59:02;;;;;;;0.60;0.60;;;;;;;;;;5043706;28;20743;-85
2023/03/22 02:01:29;;;;;;;0.57;0.57;;;;;;;;;;5051584;28;20397;-85
2023/03/22 02:04:18;;;;;;;1.17;1.08;;;;;;;;;;5044387;28;20104;-84
2023/03/22 02:06:46;;;;;;;1.20;0.90;;;;;;;;;;5043100;28;20025;-82
2023/03/22 02:09:15;;;;;;;0.75;0.75;;;;;;;;;;5042375;28;20046;-82
2023/03/22 02:11:45;;;;;;;1.60;1.08;;;;;;;;;;5062384;28;20033;-84
2023/03/22 02:14:24;;;;;;;1.20;0.98;;;;;;;;;;5046713;28;20106;-84
2023/03/22 02:16:59;;;;;;;1.23;0.60;;;;;;;;;;5041143;28;20024;-84
2023/03/22 02:19:46;;;;;;;0.85;0.80;;;;;;;;;;5044297;28;20499;-83
2023/03/22 02:22:24;;;;;;;0.90;0.68;;;;;;;;;;5039685;28;20489;-83
2023/03/22 02:25:29;;;;;;;1.42;0.57;;;;;;;;;;5040460;28;20047;-82
2023/03/22 02:28:13;;;;;;;0.43;0.43;;;;;;;;;;5042116;28;20040;-84
2023/03/22 02:31:22;;;;;;;0.75;0.73;;;;;;;;;;5056227;28;20037;-83
2023/03/22 02:34:15;;;;;;;0.50;0.50;;;;;;;;;;5040410;28;20063;-82
2023/03/22 02:36:41;;;;;;;0.50;0.50;;;;;;;;;;5037480;28;20044;-81
2023/03/22 02:39:27;;;;;;;0.40;0.40;;;;;;;;;;5041710;28;20033;-82
2023/03/22 02:42:05;;;;;;;0.47;0.43;;;;;;;;;;5044024;28;20025;-82
2023/03/22 02:44:51;;;;;;;0.55;0.55;;;;;;;;;;5046224;28;20077;-83
2023/03/22 02:47:28;;;;;;;0.55;0.40;;;;;;;;;;5036659;28;20025;-84
2023/03/22 02:50:05;;;;;;;0.60;0.60;;;;;;;;;;5058467;28;20447;-83
2023/03/22 02:53:04;;;;;;;0.63;0.30;;;;;;;;;;5042010;28;20037;-84
2023/03/22 02:55:36;;;;;;;0.50;0.50;;;;;;;;;;5043143;28;20079;-83
2023/03/22 02:58:21;;;;;;;2.30;0.60;;;;;;;;;;5040272;28;20477;-83
2023/03/22 03:00:50;;;;;;;0.85;0.65;;;;;;;;;;5059418;28;20484;-83
2023/03/22 03:03:18;;;;;;;0.50;0.50;;;;;;;;;;5036718;28;20025;-83
2023/03/22 03:05:54;;;;;;;0.60;0.60;;;;;;;;;;5040034;28;20033;-84
2023/03/22 03:08:22;;;;;;;0.40;0.40;;;;;;;;;;5047730;28;20036;-84
2023/03/22 03:10:48;;;;;;;0.68;0.38;;;;;;;;;;5040168;28;20021;-84
2023/03/22 03:13:16;;;;;;;0.60;0.60;;;;;;;;;;5045099;28;20031;-84
2023/03/22 03:15:44;;;;;;;0.65;0.60;;;;;;;;;;5044643;28;20029;-84
2023/03/22 03:18:31;;;;;;;1.50;1.02;;;;;;;;;;5046195;28;20029;-84
2023/03/22 03:21:21;;;;;;;0.90;0.77;;;;;;;;;;5039887;28;20029;-84
2023/03/22 03:24:05;;;;;;;0.50;0.50;;;;;;;;;;5039215;28;20025;-82
2023/03/22 03:27:07;;;;;;;2.00;1.20;;;;;;;;;;5038935;28;20025;-82
2023/03/22 03:29:39;;;;;;;0.70;0.57;;;;;;;;;;5037234;28;20033;-82
2023/03/22 03:32:34;;;;;;;1.83;0.75;;;;;;;;;;5042190;28;20429;-83
2023/03/22 03:35:24;;;;;;;1.15;0.77;;;;;;;;;;5043236;28;20175;-83
2023/03/22 03:37:52;;;;;;;0.38;0.38;;;;;;;;;;5044383;28;20025;-83
2023/03/22 03:40:32;;;;;;;1.00;0.93;;;;;;;;;;5043443;28;20033;-83
2023/03/22 03:43:02;;;;;;;1.00;0.82;;;;;;;;;;5043443;28;20403;-83
2023/03/22 03:45:28;;;;;;;0.40;0.40;;;;;;;;;;5043225;28;20028;-83
2023/03/22 03:47:59;;;;;;;0.43;0.43;;;;;;;;;;5040481;28;20472;-84
2023/03/22 03:50:25;;;;;;;0.60;0.50;;;;;;;;;;5041534;28;20068;-86
2023/03/22 03:52:52;;;;;;;1.02;0.70;;;;;;;;;;5041509;28;20034;-85
2023/03/22 03:55:21;;;;;;;0.77;0.47;;;;;;;;;;5043927;28;20033;-84
2023/03/22 03:57:46;;;;;;;1.23;0.80;;;;;;;;;;5046712;28;20033;-84
2023/03/22 04:00:15;;;;;;;0.70;0.70;;;;;;;;;;5042393;28;20055;-84
2023/03/22 04:02:42;;;;;;;1.08;0.65;;;;;;;;;;5045751;28;20496;-84
2023/03/22 04:05:08;;;;;;;0.77;0.65;;;;;;;;;;5045908;28;20021;-84
2023/03/22 04:07:34;;;;;;;0.90;0.77;;;;;;;;;;5042445;28;20032;-84
2023/03/22 04:09:59;;;;;;;0.80;0.80;;;;;;;;;;5041389;28;20481;-84
2023/03/22 04:12:25;;;;;;;0.68;0.65;;;;;;;;;;5044396;28;20047;-82
2023/03/22 04:14:50;;;;;;;0.50;0.50;;;;;;;;;;5039898;28;20083;-82
2023/03/22 04:17:16;;;;;;;1.17;1.00;;;;;;;;;;5044085;28;20032;-82
2023/03/22 04:19:43;;;;;;;1.02;0.68;;;;;;;;;;5046294;28;20025;-82
2023/03/22 04:22:13;;;;;;;0.93;0.85;;;;;;;;;;5040150;28;20037;-82
2023/03/22 04:24:40;;;;;;;;;;;;;;;;;;5040088;28;20029;-85
2023/03/22 04:27:07;;;;;;;1.27;0.85;;;;;;;;;;5044305;28;19970;-83
2023/03/22 04:29:35;;;;;;;0.68;0.68;;;;;;;;;;5041677;28;20276;-82
2023/03/22 04:32:03;;;;;;;0.30;0.30;;;;;;;;;;5048388;28;20075;-86
2023/03/22 04:34:30;;;;;;;0.65;0.63;;;;;;;;;;5039522;28;20025;-83
2023/03/22 04:36:56;;;;;;;1.05;0.90;;;;;;;;;;5043026;28;20028;-82
2023/03/22 04:39:22;;;;;;;1.05;0.80;;;;;;;;;;5039825;28;20055;-83
2023/03/22 04:41:48;;;;;;;1.38;1.02;;;;;;;;;;5041759;28;20461;-84
2023/03/22 04:44:13;;;;;;;1.52;1.17;;;;;;;;;;5040516;28;20033;-83
2023/03/22 04:46:38;;;;;;;0.73;0.73;;;;;;;;;;5039492;28;20025;-84
2023/03/22 04:49:05;;;;;;;1.80;0.82;;;;;;;;;;5042137;28;20028;-83
2023/03/22 04:51:31;;;;;;;1.15;1.05;;;;;;;;;;5039442;28;20397;-83
2023/03/22 04:53:57;;;;;;;0.77;0.77;;;;;;;;;;5039797;28;20040;-83
2023/03/22 04:56:24;;;;;;;1.45;0.93;;;;;;;;;;5041302;28;20033;-82
2023/03/22 04:58:49;;;;;;;1.45;0.93;;;;;;;;;;5040307;28;20047;-83
2023/03/22 05:01:16;;;;;;;1.30;0.90;;;;;;;;;;5040519;28;20493;-84
2023/03/22 05:03:44;;;;;;;0.75;0.75;;;;;;;;;;5038877;28;20029;-83
2023/03/22 05:06:10;;;;;;;0.70;0.70;;;;;;;;;;5038899;28;20072;-85
2023/03/22 05:08:36;;;;;;;1.83;1.23;;;;;;;;;;5036475;28;20389;-83
2023/03/22 05:11:15;;;;;;;0.80;0.70;;;;;;;;;;5037468;28;20473;-84
2023/03/22 05:13:41;;;;;;;1.13;1.00;;;;;;;;;;5041117;28;20842;-80
2023/03/22 05:16:07;;;;;;;0.68;0.68;;;;;;;;;;5037777;28;20024;-80
2023/03/22 05:18:33;;;;;;;1.02;0.85;;;;;;;;;;5034817;28;20506;-79
2023/03/22 05:21:05;;;;;;;0.95;0.60;;;;;;;;;;5043355;28;20049;-81
2023/03/22 05:23:31;;;;;;;1.15;0.77;;;;;;;;;;5039680;28;20047;-85
2023/03/22 05:25:57;;;;;;;1.17;0.95;;;;;;;;;;5044184;28;20026;-83
2023/03/22 05:28:23;;;;;;;0.65;0.60;;;;;;;;;;5043118;28;20024;-85
2023/03/22 05:30:50;;;;;;;0.68;0.65;;;;;;;;;;5042858;28;20044;-83
2023/03/22 05:33:20;;;;;;;1.58;1.05;;;;;;;;;;5059629;28;20036;-83
2023/03/22 05:35:46;;;;;;;0.77;0.73;;;;;;;;;;5045425;28;20021;-79
2023/03/22 05:38:11;;;;;;;0.52;0.52;;;;;;;;;;5041251;28;20364;-78
2023/03/22 05:40:36;;;;;;;0.63;0.45;;;;;;;;;;5042018;28;20469;-79
2023/03/22 05:43:02;;;;;;;0.40;0.40;;;;;;;;;;5031430;28;20036;-79
2023/03/22 05:45:27;;;;;;;0.50;0.50;;;;;;;;;;5035128;28;20481;-80
2023/03/22 05:47:53;;;;;;;1.15;0.63;;;;;;;;;;5040298;28;20120;-80
2023/03/22 05:50:20;;;;;;;1.10;1.00;;;;;;;;;;5032874;28;20022;-81
2023/03/22 05:52:46;;;;;;;0.85;0.68;;;;;;;;;;5034957;28;21397;-79
2023/03/22 05:55:13;;;;;;;0.32;0.30;;;;;;;;;;5040564;28;20112;-79
2023/03/22 05:57:39;;;;;;;0.40;0.30;;;;;;;;;;5037551;28;20029;-79
2023/03/22 06:00:12;;;;;;;0.40;0.40;;;;;;;;;;5034586;28;20852;-80
2023/03/22 06:02:38;;;;;;;0.85;0.57;;;;;;;;;;5041320;28;20060;-79
2023/03/22 06:05:04;;;;;;;0.57;0.50;;;;;;;;;;5036287;28;20485;-79
2023/03/22 06:07:30;;;;;;;0.82;0.60;;;;;;;;;;5037265;28;20066;-79
2023/03/22 06:09:55;;;;;;;0.40;0.40;;;;;;;;;;5039856;28;20065;-78
2023/03/22 06:12:23;;;;;;;0.40;0.40;;;;;;;;;;5040570;28;20028;-85
2023/03/22 06:14:49;;;;;;;0.60;0.60;;;;;;;;;;5042267;28;20492;-86
2023/03/22 06:17:14;;;;;;;0.57;0.57;;;;;;;;;;5045212;28;20025;-85
2023/03/22 06:19:40;;;;;;;0.32;0.32;;;;;;;;;;5043510;28;20078;-78
2023/03/22 06:22:05;;;;;;;1.65;0.65;;;;;;;;;;5032532;28;20482;-80
2023/03/22 06:24:31;;;;;;;2.28;1.50;;;;;;;;;;5034279;28;20119;-79
2023/03/22 06:26:56;;;;;;;2.75;2.08;;;;;;;;;;5034263;28;20397;-79
2023/03/22 06:29:21;;;;;;;4.00;1.50;;;;;;;;;;5030505;28;20437;-79
2023/03/22 06:31:47;;;;;;;2.22;1.52;;;;;;;;;;5033099;28;20487;-79
2023/03/22 06:34:12;;;;;;;3.17;1.52;;;;;;;;;;5037377;28;20044;-83
2023/03/22 06:36:38;;;;;;;1.30;1.17;;;;;;;;;;5043680;28;20032;-82
2023/03/22 06:39:04;;;;;;;0.65;0.63;;;;;;;;;;5039279;28;20021;-83
2023/03/22 06:41:29;;;;;;;3.20;1.33;;;;;;;;;;5045388;28;20082;-84
2023/03/22 06:43:55;;;;;;;2.17;1.17;;;;;;;;;;5039118;28;20044;-82
2023/03/22 06:46:20;;;;;;;2.03;1.20;;;;;;;;;;5042391;28;20033;-83
2023/03/22 06:48:46;;;;;;;0.98;0.88;;;;;;;;;;5042389;28;20048;-83
2023/03/22 06:51:11;;;;;;;1.73;0.70;;;;;;;;;;5032665;28;20028;-83
2023/03/22 06:53:37;;;;;;;1.30;1.00;;;;;;;;;;5038691;28;20028;-83
2023/03/22 06:56:03;;;;;;;3.92;1.80;;;;;;;;;;5039088;28;20460;-81
2023/03/22 06:58:29;;;;;;;2.65;1.70;;;;;;;;;;5040128;28;20381;-83
2023/03/22 07:00:55;;;;;;;2.45;1.80;;;;;;;;;;5041854;28;20041;-84
2023/03/22 07:03:20;;;;;;;1.90;1.75;;;;;;;;;;5035311;28;20037;-82
2023/03/22 07:05:46;;;;;;;2.40;1.55;;;;;;;;;;5039515;28;20017;-82
2023/03/22 07:08:11;;;;;;;2.05;1.27;;;;;;;;;;5039446;28;20036;-82
2023/03/22 07:10:36;;;;;;;1.45;1.30;;;;;;;;;;5037545;28;20059;-79
2023/03/22 07:13:02;;;;;;;1.58;0.90;;;;;;;;;;5030840;28;20032;-82
2023/03/22 07:15:29;;;;;;;2.08;1.05;;;;;;;;;;5041285;28;20029;-82
2023/03/22 07:17:54;;;;;;;0.60;0.50;;;;;;;;;;5036119;28;20037;-82
2023/03/22 07:20:20;;;;;;;1.33;1.13;;;;;;;;;;5031933;28;20113;-83
2023/03/22 07:22:45;;;;;;;1.23;0.70;;;;;;;;;;5031971;28;20116;-83
2023/03/22 07:25:11;;;;;;;0.70;0.70;;;;;;;;;;5036087;28;20031;-83
2023/03/22 07:27:36;;;;;;;5.85;3.15;;;;;;;;;;5040367;28;20040;-82
2023/03/22 07:30:04;;;;;;;1.50;0.95;;;;;;;;;;5048574;28;20037;-83
2023/03/22 07:32:30;;;;;;;0.98;0.80;;;;;;;;;;5032384;28;20124;-82
2023/03/22 07:34:55;;;;;;;1.08;0.80;;;;;;;;;;5037355;28;20116;-82
2023/03/22 07:37:21;;;;;;;1.10;1.00;;;;;;;;;;5040797;28;20090;-82
2023/03/22 07:39:46;;;;;;;0.80;0.70;;;;;;;;;;5030998;28;20021;-80
2023/03/22 07:42:12;;;;;;;1.13;0.50;;;;;;;;;;5033511;28;20087;-80
2023/03/22 07:44:37;;;;;;;0.75;0.75;;;;;;;;;;5033080;28;20029;-80
2023/03/22 07:47:03;;;;;;;0.68;0.50;;;;;;;;;;5031096;28;20056;-80
2023/03/22 07:49:30;;;;;;;0.68;0.45;;;;;;;;;;5041858;28;20052;-79
2023/03/22 07:51:55;;;;;;;0.50;0.50;;;;;;;;;;5034597;28;20029;-81
2023/03/22 07:54:21;;;;;;;0.65;0.52;;;;;;;;;;5032544;28;20021;-80
2023/03/22 07:56:46;;;;;;;0.65;0.40;;;;;;;;;;5026999;28;20033;-80
2023/03/22 07:59:13;;;;;;;0.47;0.47;;;;;;;;;;5031160;28;20378;-79
2023/03/22 08:01:39;;;;;;;0.95;0.70;;;;;;;;;;5031067;28;20076;-79
2023/03/22 08:04:04;;;;;;;1.15;0.70;;;;;;;;;;5027807;28;20449;-80
2023/03/22 08:06:31;;;;;;;1.10;1.00;;;;;;;;;;5030482;28;20038;-79
2023/03/22 08:08:57;;;;;;;0.80;0.80;;;;;;;;;;5030685;28;20025;-80
2023/03/22 08:11:23;;;;;;;2.08;0.90;;;;;;;;;;5028254;28;20497;-79
2023/03/22 08:13:48;;;;;;;0.50;0.50;;;;;;;;;;5028592;28;20546;-79
2023/03/22 08:16:13;;;;;;;2.63;1.27;;;;;;;;;;5046230;28;20025;-80
2023/03/22 08:18:39;;;;;;;0.75;0.75;;;;;;;;;;5030707;28;20029;-79
2023/03/22 08:21:05;;;;;;;1.08;0.80;;;;;;;;;;5040772;28;20499;-79
2023/03/22 08:23:31;;;;;;;0.43;0.43;;;;;;;;;;5034801;28;20041;-79
2023/03/22 08:25:56;;;;;;;0.70;0.65;;;;;;;;;;5032221;28;20036;-80
2023/03/22 08:28:22;;;;;;;0.63;0.47;;;;;;;;;;5032924;28;20025;-79
2023/03/22 08:30:48;;;;;;;0.80;0.55;;;;;;;;;;5029772;28;20035;-80
2023/03/22 08:33:14;;;;;;;0.95;0.50;;;;;;;;;;5029338;28;20100;-80
2023/03/22 08:35:41;;;;;;;1.02;0.60;;;;;;;;;;5029554;28;20032;-79
2023/03/22 08:38:06;;;;;;;0.77;0.50;;;;;;;;;;5027355;28;20025;-79
2023/03/22 08:40:32;;;;;;;0.43;0.32;;;;;;;;;;5029320;28;20021;-79
2023/03/22 08:42:57;;;;;;;0.70;0.60;;;;;;;;;;5045806;28;20492;-80
2023/03/22 08:45:23;;;;;;;0.25;0.15;;;;;;;;;;5029497;28;20029;-80
2023/03/22 08:47:49;;;;;;;0.60;0.60;;;;;;;;;;5029703;28;20520;-81
2023/03/22 08:50:14;;;;;;;0.82;0.82;;;;;;;;;;5035591;28;20025;-82
2023/03/22 08:52:40;;;;;;;0.50;0.50;;;;;;;;;;5028437;28;20389;-80
2023/03/22 08:55:07;;;;;;;0.40;0.40;;;;;;;;;;5029021;28;20084;-79
2023/03/22 08:57:33;;;;;;;1.00;0.80;;;;;;;;;;5031998;28;20025;-80
2023/03/22 08:59:59;;;;;;;0.50;0.50;;;;;;;;;;5035193;28;20120;-80
2023/03/22 09:02:25;;;;;;;0.40;0.30;;;;;;;;;;5053949;28;20568;-79
2023/03/22 09:04:51;;;;;;;0.73;0.73;;;;;;;;;;5032887;28;20473;-80
2023/03/22 09:07:19;;;;;;;0.77;0.70;;;;;;;;;;5039288;28;20053;-79
2023/03/22 09:09:44;;;;;;;0.82;0.65;;;;;;;;;;5034263;28;20440;-79
2023/03/22 09:12:10;;;;;;;5.10;2.25;;;;;;;;;;5043804;28;20057;-79
2023/03/22 09:14:36;;;;;;;0.93;0.45;;;;;;;;;;5036481;28;20029;-80
2023/03/22 09:17:01;;;;;;;0.70;0.70;;;;;;;;;;5032085;28;20037;-80
2023/03/22 09:19:27;;;;;;;0.82;0.70;;;;;;;;;;5034379;28;20084;-80
2023/03/22 09:21:53;;;;;;;2.00;1.35;;;;;;;;;;5046504;28;20022;-80
2023/03/22 09:24:19;;;;;;;1.83;1.27;;;;;;;;;;5031964;28;20021;-79
2023/03/22 09:26:45;;;;;;;3.45;2.30;;;;;;;;;;5038960;28;20622;-80
2023/03/22 09:29:12;;;;;;;3.63;2.08;;;;;;;;;;5039118;28;20029;-80
2023/03/22 09:31:38;;;;;;;6.15;2.15;;;;;;;;;;5057893;28;20037;-80
2023/03/22 09:34:04;;;;;;;3.25;2.67;;;;;;;;;;5034464;28;20055;-80
2023/03/22 09:36:31;;;;;;;3.50;2.78;;;;;;;;;;5039400;28;20029;-80
2023/03/22 09:38:58;;;;;;;3.33;2.08;;;;;;;;;;5033960;28;20025;-80
2023/03/22 09:41:38;;;;;;;3.10;2.15;;;;;;;;;;5038674;28;20029;-79
2023/03/22 09:44:11;;;;;;;2.70;1.63;;;;;;;;;;5034892;28;20028;-79
2023/03/22 09:46:41;;;;;;;3.97;2.08;;;;;;;;;;5044283;28;20033;-79
2023/03/22 09:49:15;;;;;;;2.65;1.98;;;;;;;;;;5033840;28;20102;-79
2023/03/22 09:51:47;;;;;;;2.58;1.65;;;;;;;;;;5034136;28;20163;-79
2023/03/22 09:54:14;;;;;;;1.65;0.77;;;;;;;;;;5034824;28;20493;-80
2023/03/22 09:56:39;;;;;;;0.80;0.70;;;;;;;;;;5039730;28;20018;-79
2023/03/22 09:59:15;;;;;;;1.58;1.05;;;;;;;;;;5033252;28;20077;-79
2023/03/22 10:01:55;;;;;;;0.98;0.88;;;;;;;;;;5035668;28;20069;-80
2023/03/22 10:04:41;;;;;;;0.75;0.60;;;;;;;;;;5039046;28;20037;-80
2023/03/22 10:07:39;;;;;;;1.13;0.82;;;;;;;;;;5030511;28;20033;-79
2023/03/22 10:10:17;;;;;;;1.08;0.82;;;;;;;;;;5037900;28;20045;-81
2023/03/22 10:13:05;;;;;;;0.98;0.85;;;;;;;;;;5034459;28;20037;-80
2023/03/22 10:15:37;;;;;;;1.67;1.15;;;;;;;;;;5031654;28;20037;-80
2023/03/22 10:18:07;;;;;;;3.05;1.63;;;;;;;;;;5033023;28;20045;-81
2023/03/22 10:20:52;;;;;;;2.05;1.33;;;;;;;;;;5039961;28;20472;-79
2023/03/22 10:23:29;;;;;;;2.75;1.70;;;;;;;;;;5034696;28;20036;-84
2023/03/22 10:25:56;;;;;;;2.25;1.50;;;;;;;;;;5031895;28;20072;-79
2023/03/22 10:28:43;;;;;;;2.20;1.83;;;;;;;;;;5031121;28;20029;-81
2023/03/22 10:31:20;;;;;;;5.78;3.55;;;;;;;;;;5030756;28;20028;-79
2023/03/22 10:33:57;;;;;;;3.10;2.65;;;;;;;;;;5032292;28;20056;-79
2023/03/22 10:36:29;;;;;;;4.35;3.40;;;;;;;;;;5038427;28;20075;-80
2023/03/22 10:39:00;;;;;;;4.00;2.30;;;;;;;;;;5031572;28;20485;-79
2023/03/22 10:41:28;;;;;;;3.35;2.40;;;;;;;;;;5031595;28;20053;-78
2023/03/22 10:43:57;;;;;;;2.83;2.00;;;;;;;;;;5031160;28;20037;-79
2023/03/22 10:46:30;;;;;;;4.30;2.30;;;;;;;;;;5036002;28;20035;-79
2023/03/22 10:48:59;;;;;;;2.83;2.03;;;;;;;;;;5040603;28;20029;-80
2023/03/22 10:51:46;;;;;;;4.77;1.93;;;;;;;;;;5029808;28;20037;-81
2023/03/22 10:54:14;;;;;;;1.80;1.63;;;;;;;;;;5034090;28;20274;-81
2023/03/22 10:56:40;;;;;;;2.80;2.17;;;;;;;;;;5040829;28;20502;-80
2023/03/22 10:59:05;;;;;;;3.65;1.48;;;;;;;;;;5027950;28;20037;-80
2023/03/22 11:01:35;;;;;;;4.13;2.30;;;;;;;;;;5040490;28;20487;-80
2023/03/22 11:04:08;;;;;;;3.47;2.17;;;;;;;;;;5039679;28;20033;-80
2023/03/22 11:06:48;;;;;;;5.10;3.13;;;;;;;;;;5038227;28;20115;-81
2023/03/22 11:09:22;;;;;;;4.28;2.05;;;;;;;;;;5042248;28;20040;-81
2023/03/22 11:11:59;;;;;;;4.53;2.10;;;;;;;;;;5031217;28;20029;-81
2023/03/22 11:14:36;;;;;;;2.88;2.08;;;;;;;;;;5031989;28;20084;-80
2023/03/22 11:17:04;;;;;;;8.95;4.85;;;;;;;;;;5032734;28;20033;-81
2023/03/22 11:19:39;;;;;;;4.45;2.67;;;;;;;;;;5034213;28;20111;-81
2023/03/22 11:22:23;;;;;;;3.20;1.75;;;;;;;;;;5038771;28;20033;-82
2023/03/22 11:24:50;;;;;;;0.80;0.73;;;;;;;;;;5040019;28;20020;-80
2023/03/22 11:27:23;;;;;;;0.65;0.52;;;;;;;;;;5036616;28;20033;-81
2023/03/22 11:29:51;;;;;;;0.60;0.60;;;;;;;;;;5040111;28;20559;-81
2023/03/22 11:32:36;;;;;;;0.43;0.40;;;;;;;;;;5037938;28;20111;-81
2023/03/22 11:35:22;;;;;;;0.60;0.60;;;;;;;;;;5037122;28;20068;-81
2023/03/22 11:37:50;;;;;;;0.70;0.70;;;;;;;;;;5036049;28;20107;-81
2023/03/22 11:40:25;;;;;;;1.30;0.68;;;;;;;;;;5035323;28;20036;-81
2023/03/22 11:43:00;;;;;;;0.85;0.60;;;;;;;;;;5026582;28;20039;-81
2023/03/22 11:45:39;;;;;;;1.42;0.70;;;;;;;;;;5035543;28;20051;-81
2023/03/22 11:48:10;;;;;;;1.35;1.20;;;;;;;;;;5031120;28;20033;-81
2023/03/22 11:50:37;;;;;;;4.95;1.92;;;;;;;;;;5040209;28;20036;-82
2023/03/22 11:53:07;;;;;;;4.32;1.80;;;;;;;;;;5025836;28;20477;-80
2023/03/22 11:55:35;;;;;;;3.08;2.25;;;;;;;;;;5028785;28;20056;-81
2023/03/22 11:58:05;;;;;;;5.82;3.08;;;;;;;;;;5036013;28;20036;-81
2023/03/22 12:00:36;;;;;;;4.57;2.28;;;;;;;;;;5040893;28;20584;-82
2023/03/22 12:03:08;;;;;;;2.20;1.20;;;;;;;;;;5035611;28;20045;-79
2023/03/22 12:05:38;;;;;;;2.90;1.92;;;;;;;;;;5038893;28;20021;-80
2023/03/22 12:08:22;;;;;;;2.25;1.65;;;;;;;;;;5041091;28;20029;-80
2023/03/22 12:10:54;;;;;;;3.70;2.70;;;;;;;;;;5043655;28;20045;-82
2023/03/22 12:13:43;;;;;;;3.05;2.22;;;;;;;;;;5046981;28;20031;-80
2023/03/22 12:16:12;;;;;;;7.30;3.13;;;;;;;;;;5029413;28;21409;-80
2023/03/22 12:18:56;;;;;;;4.72;3.10;;;;;;;;;;5039183;28;20032;-83
2023/03/22 12:21:22;;;;;;;4.72;2.85;;;;;;;;;;5031960;28;20033;-81
2023/03/22 12:23:47;;;;;;;3.83;2.45;;;;;;;;;;5041498;28;20021;-80
2023/03/22 12:26:24;;;;;;;4.75;2.30;;;;;;;;;;5037569;28;20025;-81
2023/03/22 12:28:58;;;;;;;11.93;3.42;;;;;;;;;;5042691;28;20028;-81
2023/03/22 12:31:37;;;;;;;4.43;2.45;;;;;;;;;;5038915;28;20423;-81
2023/03/22 12:34:07;;;;;;;3.92;2.30;;;;;;;;;;5034259;28;20488;-80
2023/03/22 12:36:48;;;;;;;3.65;2.25;;;;;;;;;;5060221;28;20021;-81
2023/03/22 12:39:25;;;;;;;3.33;2.08;;;;;;;;;;5037838;28;20029;-80
2023/03/22 12:41:54;;;;;;;2.35;1.30;;;;;;;;;;5027440;28;20076;-81
2023/03/22 12:44:39;;;;;;;2.40;1.57;;;;;;;;;;5030497;28;20033;-81
2023/03/22 12:47:46;;;;;;;1.83;1.42;;;;;;;;;;5029522;28;20029;-80
2023/03/22 12:50:16;;;;;;;1.02;0.65;;;;;;;;;;5030441;28;20032;-81
2023/03/22 12:52:49;;;;;;;3.58;1.20;;;;;;;;;;5036004;28;20110;-80
2023/03/22 12:55:31;;;;;;;1.75;0.63;;;;;;;;;;5039718;28;20114;-82
2023/03/22 12:57:58;;;;;;;0.38;0.30;;;;;;;;;;5039746;28;20510;-82
2023/03/22 13:00:33;;;;;;;0.25;0.25;;;;;;;;;;5035308;28;20789;-82
2023/03/22 13:03:14;;;;;;;0.45;0.30;;;;;;;;;;5038781;28;20045;-82
2023/03/22 13:05:40;;;;;;;3.50;1.95;;;;;;;;;;5045227;28;20029;-83
2023/03/22 13:08:06;;;;;;;5.05;2.08;;;;;;;;;;5034294;28;20030;-81
2023/03/22 13:10:31;;;;;;;6.55;2.95;;;;;;;;;;5035519;28;20496;-81
2023/03/22 13:13:10;;;;;;;7.10;3.70;;;;;;;;;;5039154;28;20079;-81
2023/03/22 13:15:55;;;;;;;5.00;2.07;;;;;;;;;;5028605;28;20025;-82
2023/03/22 13:18:39;;;;;;;5.68;3.05;;;;;;;;;;5037905;28;20614;-82
2023/03/22 13:21:21;;;;;;;7.82;4.47;;;;;;;;;;5030991;28;20029;-83
2023/03/22 13:24:06;;;;;;;2.08;1.25;;;;;;;;;;5037265;28;20037;-81
2023/03/22 13:26:50;;;;;;;3.03;1.08;;;;;;;;;;5036105;28;20503;-83
2023/03/22 13:29:24;;;;;;;1.77;1.23;;;;;;;;;;5036941;28;20418;-81
2023/03/22 13:31:49;;;;;;;1.80;0.98;;;;;;;;;;5033575;28;20107;-83
2023/03/22 13:34:18;;;;;;;1.08;0.90;;;;;;;;;;5036241;28;20025;-83
2023/03/22 13:36:53;;;;;;;0.77;0.77;;;;;;;;;;5028497;28;20025;-81
2023/03/22 13:39:22;;;;;;;3.65;1.40;;;;;;;;;;5037375;28;20109;-81
2023/03/22 13:41:58;;;;;;;2.67;1.70;;;;;;;;;;5033516;28;20087;-80
2023/03/22 13:44:27;;;;;;;2.22;1.02;;;;;;;;;;5034478;28;20484;-82
2023/03/22 13:46:58;;;;;;;3.10;1.27;;;;;;;;;;5038853;28;20113;-81
2023/03/22 13:49:41;;;;;;;1.67;1.10;;;;;;;;;;5040089;28;20025;-81
2023/03/22 13:52:08;;;;;;;2.42;1.52;;;;;;;;;;5036858;28;20029;-82
2023/03/22 13:54:41;;;;;;;0.82;0.73;;;;;;;;;;5038983;28;20087;-83
2023/03/22 13:57:33;;;;;;;0.80;0.70;;;;;;;;;;5039508;28;20112;-80
2023/03/22 14:00:13;;;;;;;2.67;1.88;;;;;;;;;;5037417;28;20094;-81
2023/03/22 14:02:41;;;;;;;0.88;0.88;;;;;;;;;;5039393;28;20049;-82
2023/03/22 14:05:15;;;;;;;4.35;1.98;;;;;;;;;;5039395;28;20131;-81
2023/03/22 14:07:58;;;;;;;2.42;1.35;;;;;;;;;;5039364;28;20468;-83
2023/03/22 14:10:43;;;;;;;2.22;1.13;;;;;;;;;;5039605;28;20017;-83
2023/03/22 14:13:24;;;;;;;6.13;2.65;;;;;;;;;;5053710;28;20059;-81
2023/03/22 14:15:54;;;;;;;3.17;1.70;;;;;;;;;;5048249;28;20029;-81
2023/03/22 14:18:23;;;;;;;;;;;;;;;;;;5040096;28;20035;-82
2023/03/22 14:20:53;;;;;;;3.90;2.08;;;;;;;;;;5043005;28;19913;-80
2023/03/22 14:24:00;;;;;;;4.65;1.85;;;;;;;;;;5037069;28;20040;-82
2023/03/22 14:26:38;;;;;;;2.53;1.73;;;;;;;;;;5029701;28;20051;-80
2023/03/22 14:29:25;;;;;;;3.72;1.80;;;;;;;;;;5027123;28;20152;-83
2023/03/22 14:32:19;;;;;;;2.90;1.50;;;;;;;;;;5041621;28;20105;-83
2023/03/22 14:34:52;;;;;;;5.32;2.75;;;;;;;;;;5038284;28;20044;-81
2023/03/22 14:37:18;;;;;;;5.47;3.15;;;;;;;;;;5039312;28;20040;-83
2023/03/22 14:39:49;;;;;;;3.30;2.42;;;;;;;;;;5033961;28;20029;-82
2023/03/22 14:42:17;;;;;;;2.40;1.80;;;;;;;;;;5032004;28;20021;-84
2023/03/22 14:44:46;;;;;;;2.53;1.88;;;;;;;;;;5037573;28;20037;-82
2023/03/22 14:47:18;;;;;;;3.83;2.08;;;;;;;;;;5032586;28;20068;-82
2023/03/22 14:49:45;;;;;;;5.07;2.00;;;;;;;;;;5038600;28;20079;-82
2023/03/22 14:52:24;;;;;;;3.85;2.25;;;;;;;;;;5045429;28;20115;-83
2023/03/22 14:54:53;;;;;;;2.85;2.20;;;;;;;;;;5035113;28;20033;-81
2023/03/22 14:57:19;;;;;;;1.77;1.55;;;;;;;;;;5034482;28;20021;-84
2023/03/22 14:59:48;;;;;;;3.33;1.90;;;;;;;;;;5046568;28;20358;-82
2023/03/22 15:02:26;;;;;;;3.78;2.55;;;;;;;;;;5037331;28;20581;-84
2023/03/22 15:04:52;;;;;;;5.10;3.53;;;;;;;;;;5042576;28;20036;-81